Time;durP1;ratioP1;P1;durP2;ratioP2;P2;SDS_P1;SDS_P2;PMS_P1;PMS_P2;Temp;Humidity;BMP_temperature;BMP_pressure;BME280_temperature;BME280_humidity;BME280_pressure;Samples;Min_cycle;Max_cycle;Signal;HPM_P1;HPM_P2
2023/12/11 00:00:21;;;;;;;1999.90;999.90;;;;;;;0.39;94.17;96397.44;5093773;28;20052;-63
2023/12/11 00:02:49;;;;;;;1999.90;999.90;;;;;;;0.37;93.93;96394.84;5093780;28;20498;-64
2023/12/11 00:05:16;;;;;;;1999.90;999.90;;;;;;;0.30;94.14;96400.84;5093676;28;20099;-63
2023/12/11 00:07:43;;;;;;;1999.90;999.90;;;;;;;0.22;94.78;96400.88;5093494;28;20578;-63
2023/12/11 00:10:11;;;;;;;1999.90;999.90;;;;;;;0.20;95.07;96397.44;5093731;28;20139;-61
2023/12/11 00:12:38;;;;;;;1999.90;999.90;;;;;;;0.22;95.33;96408.59;5093502;28;20044;-64
2023/12/11 00:15:06;;;;;;;1999.90;999.90;;;;;;;0.23;95.02;96415.44;5093325;28;20139;-62
2023/12/11 00:17:35;;;;;;;1999.90;999.90;;;;;;;0.30;95.09;96420.59;5093329;28;20047;-64
2023/12/11 00:20:02;;;;;;;1999.90;999.90;;;;;;;0.31;95.08;96407.75;5093519;28;20082;-64
2023/12/11 00:22:29;;;;;;;1999.90;999.90;;;;;;;0.36;94.55;96418.88;5093636;28;20040;-64
2023/12/11 00:24:56;;;;;;;1999.90;999.90;;;;;;;0.31;94.63;96422.31;5093319;28;20051;-62
2023/12/11 00:27:23;;;;;;;1999.90;999.90;;;;;;;0.31;94.24;96430.91;5092391;28;20738;-61
2023/12/11 00:29:51;;;;;;;1999.90;999.90;;;;;;;0.29;94.79;96432.59;5093286;28;20050;-64
2023/12/11 00:32:18;;;;;;;1999.90;999.90;;;;;;;0.32;94.67;96439.47;5093379;28;20048;-63
2023/12/11 00:34:47;;;;;;;1999.90;999.90;;;;;;;0.32;94.33;96439.47;5093171;28;20097;-64
2023/12/11 00:37:14;;;;;;;1999.90;999.90;;;;;;;0.34;94.54;96453.19;5093126;28;20521;-64
2023/12/11 00:39:41;;;;;;;1999.90;999.90;;;;;;;0.36;94.63;96447.19;5093195;28;20052;-64
2023/12/11 00:42:08;;;;;;;1999.90;999.90;;;;;;;0.46;94.21;96450.66;5093186;28;20051;-61
2023/12/11 00:44:37;;;;;;;1999.90;999.90;;;;;;;0.54;93.55;96445.47;5092994;28;20052;-60
2023/12/11 00:47:05;;;;;;;1999.90;999.90;;;;;;;0.62;92.87;96442.91;5093216;28;20387;-63
2023/12/11 00:49:32;;;;;;;1999.90;999.90;;;;;;;0.61;92.43;96439.47;5093060;28;20048;-61
2023/12/11 00:52:01;;;;;;;1999.90;999.90;;;;;;;0.61;92.63;96448.94;5093069;28;20044;-62
2023/12/11 00:54:28;;;;;;;1999.90;999.90;;;;;;;0.63;92.22;96449.78;5093058;28;20539;-64
2023/12/11 00:56:55;;;;;;;1999.90;999.90;;;;;;;0.68;92.03;96458.38;5093130;28;20105;-60
2023/12/11 00:59:22;;;;;;;1999.90;999.90;;;;;;;0.69;92.00;96460.06;5093038;28;20052;-62
2023/12/11 01:01:50;;;;;;;1999.90;999.90;;;;;;;0.66;91.94;96462.66;5093037;28;20128;-63
2023/12/11 01:04:17;;;;;;;1999.90;999.90;;;;;;;0.69;91.80;96461.81;5092905;28;20051;-64
2023/12/11 01:06:44;;;;;;;1999.90;999.90;;;;;;;0.73;90.94;96458.38;5093087;28;20044;-62
2023/12/11 01:09:14;;;;;;;1999.90;999.90;;;;;;;0.62;90.93;96466.09;5092946;28;20044;-63
2023/12/11 01:11:41;;;;;;;1999.90;999.90;;;;;;;0.53;91.41;96464.38;5092956;28;20098;-62
2023/12/11 01:14:08;;;;;;;1999.90;999.90;;;;;;;0.48;91.72;96471.25;5092735;28;20055;-61
2023/12/11 01:16:35;;;;;;;1999.90;999.90;;;;;;;0.45;92.32;96458.38;5092853;28;20044;-64
2023/12/11 01:19:02;;;;;;;1999.90;999.90;;;;;;;0.41;92.60;96449.78;5092870;28;20044;-63
2023/12/11 01:21:29;;;;;;;1999.90;999.90;;;;;;;0.46;92.80;96442.06;5092764;28;20055;-62
2023/12/11 01:23:57;;;;;;;1999.90;999.90;;;;;;;0.42;93.02;96430.06;5092856;28;20044;-62
2023/12/11 01:26:25;;;;;;;1999.90;999.90;;;;;;;0.42;92.38;96427.47;5092646;28;20054;-64
2023/12/11 01:28:52;;;;;;;1999.90;999.90;;;;;;;0.36;92.81;96426.59;5092422;28;20102;-62
2023/12/11 01:31:19;;;;;;;1999.90;999.90;;;;;;;0.36;92.83;96429.19;5092760;28;20048;-64
2023/12/11 01:33:46;;;;;;;1999.90;999.90;;;;;;;0.35;93.44;96424.91;5092712;28;20048;-65
2023/12/11 01:36:14;;;;;;;1999.90;999.90;;;;;;;0.43;93.28;96414.63;5092702;28;20044;-64
2023/12/11 01:38:41;;;;;;;1999.90;999.90;;;;;;;0.37;93.09;96402.56;5095294;28;20051;-63
2023/12/11 01:41:08;;;;;;;1999.90;999.90;;;;;;;0.32;93.31;96399.16;5096479;28;20048;-63
2023/12/11 01:43:37;;;;;;;1999.90;999.90;;;;;;;0.25;93.51;96392.28;5096475;28;20067;-64
2023/12/11 01:46:07;;;;;;;1999.90;999.90;;;;;;;0.10;94.14;96381.16;5096337;28;20044;-64
2023/12/11 01:48:35;;;;;;;1999.90;999.90;;;;;;;-0.01;94.76;96381.13;5096254;28;20090;-64
2023/12/11 01:51:03;;;;;;;1999.90;999.90;;;;;;;-0.03;95.22;96385.41;5096260;28;20497;-65
2023/12/11 01:53:31;;;;;;;1999.90;999.90;;;;;;;-0.01;95.13;96383.69;5096189;28;20059;-60
2023/12/11 01:55:58;;;;;;;1999.90;999.90;;;;;;;0.04;95.02;96381.13;5096220;28;20048;-65
2023/12/11 01:58:27;;;;;;;1999.90;999.90;;;;;;;0.08;95.10;96376.84;5096072;28;20048;-62
2023/12/11 02:00:55;;;;;;;1999.90;999.90;;;;;;;0.04;94.88;96357.13;5095970;28;20044;-61
2023/12/11 02:03:23;;;;;;;1999.90;999.90;;;;;;;-0.01;94.78;96347.69;5095933;28;20040;-64
2023/12/11 02:05:50;;;;;;;1999.90;999.90;;;;;;;-0.08;94.76;96350.25;5096050;28;20232;-65
2023/12/11 02:08:17;;;;;;;1999.90;999.90;;;;;;;-0.11;95.08;96358.81;5095703;28;20052;-62
2023/12/11 02:10:44;;;;;;;1999.90;999.90;;;;;;;-0.23;95.57;96359.66;5095925;28;20052;-60
2023/12/11 02:13:12;;;;;;;1999.90;999.90;;;;;;;-0.18;96.07;96375.09;5095925;28;20055;-65
2023/12/11 02:15:40;;;;;;;1999.90;999.90;;;;;;;-0.28;95.61;96377.63;5095593;28;20044;-64
2023/12/11 02:18:10;;;;;;;1999.90;999.90;;;;;;;-0.28;95.58;96381.91;5095748;28;20121;-64
2023/12/11 02:20:39;;;;;;;1999.90;999.90;;;;;;;-0.25;95.63;96387.06;5095735;28;20505;-62
2023/12/11 02:23:11;;;;;;;1999.90;999.90;;;;;;;-0.17;95.27;96389.66;5095607;28;20052;-65
2023/12/11 02:25:40;;;;;;;1999.90;999.90;;;;;;;-0.16;94.34;96391.38;5095611;28;20048;-64
2023/12/11 02:28:08;;;;;;;1999.90;999.90;;;;;;;-0.14;94.81;96397.38;5095371;28;20048;-64
2023/12/11 02:30:37;;;;;;;1999.90;999.90;;;;;;;-0.08;94.60;96401.69;5095410;28;20089;-62
2023/12/11 02:33:05;;;;;;;1999.90;999.90;;;;;;;-0.04;94.11;96401.69;5095373;28;20555;-63
2023/12/11 02:35:33;;;;;;;1999.90;999.90;;;;;;;-0.01;93.93;96404.28;5095376;28;20055;-61
2023/12/11 02:38:00;;;;;;;1999.90;999.90;;;;;;;0.02;93.69;96397.41;5095360;28;20135;-64
2023/12/11 02:40:27;;;;;;;1999.90;999.90;;;;;;;0.04;93.35;96396.56;5095317;28;20066;-65
2023/12/11 02:42:54;;;;;;;1999.90;999.90;;;;;;;0.05;93.21;96392.25;5095511;28;20465;-62
2023/12/11 02:45:23;;;;;;;1999.90;999.90;;;;;;;-0.03;93.53;96390.53;5095104;28;20044;-62
2023/12/11 02:47:50;;;;;;;1999.90;999.90;;;;;;;-0.05;93.51;96381.97;5095065;28;20051;-64
2023/12/11 02:50:17;;;;;;;1999.90;999.90;;;;;;;-0.07;94.29;96383.69;5094094;28;20405;-63
2023/12/11 02:52:44;;;;;;;1999.90;999.90;;;;;;;-0.18;94.42;96381.06;5095060;28;20452;-63
2023/12/11 02:55:11;;;;;;;1999.90;999.90;;;;;;;-0.16;94.94;96391.38;5094930;28;20056;-60
2023/12/11 02:57:38;;;;;;;1999.90;999.90;;;;;;;-0.19;95.26;96392.22;5095145;28;20048;-64
2023/12/11 03:00:07;;;;;;;1999.90;999.90;;;;;;;-0.17;95.42;96387.09;5095140;28;20093;-63
2023/12/11 03:02:38;;;;;;;1999.90;999.90;;;;;;;-0.33;95.43;96378.50;5094873;28;20044;-62
2023/12/11 03:05:05;;;;;;;;;;;;;;;-0.49;95.36;96375.88;5095303;28;20055;-62
2023/12/11 03:07:32;;;;;;;1999.90;999.90;;;;;;;-0.57;96.28;96372.44;5094581;28;20297;-60
2023/12/11 03:09:59;;;;;;;1999.90;999.90;;;;;;;-0.58;96.37;96370.69;5094597;28;20094;-61
2023/12/11 03:12:26;;;;;;;1999.90;999.90;;;;;;;-0.64;97.00;96367.25;5094589;28;20105;-64
2023/12/11 03:14:53;;;;;;;1999.90;999.90;;;;;;;-0.62;97.12;96358.69;5094585;28;20177;-62
2023/12/11 03:17:20;;;;;;;1999.90;999.90;;;;;;;-0.61;97.11;96365.56;5094698;28;20066;-62
2023/12/11 03:19:48;;;;;;;1999.90;999.90;;;;;;;-0.66;96.94;96368.13;5094640;28;20052;-63
2023/12/11 03:22:15;;;;;;;1999.90;999.90;;;;;;;-0.68;96.85;96359.53;5094438;28;20052;-65
2023/12/11 03:24:43;;;;;;;1999.90;999.90;;;;;;;-0.69;96.06;96363.78;5094362;28;20052;-61
2023/12/11 03:27:10;;;;;;;1999.90;999.90;;;;;;;-0.71;95.62;96369.78;5094203;28;20383;-62
2023/12/11 03:29:37;;;;;;;1999.90;999.90;;;;;;;-0.70;95.24;96374.06;5093957;28;20044;-62
2023/12/11 03:32:05;;;;;;;1999.90;999.90;;;;;;;-0.69;94.66;96371.50;5094191;28;20051;-61
2023/12/11 03:34:32;;;;;;;1999.90;999.90;;;;;;;-0.71;94.00;96369.78;5094135;28;20094;-60
2023/12/11 03:37:00;;;;;;;1999.90;999.90;;;;;;;-0.74;93.89;96373.22;5094241;28;20047;-62
2023/12/11 03:39:27;;;;;;;1999.90;999.90;;;;;;;-0.79;94.29;96373.19;5094109;28;20052;-61
2023/12/11 03:41:56;;;;;;;1999.90;999.90;;;;;;;-0.82;94.66;96377.44;5094129;28;20055;-62
2023/12/11 03:44:23;;;;;;;1999.90;999.90;;;;;;;-0.84;94.90;96384.31;5094080;28;20052;-61
2023/12/11 03:46:50;;;;;;;1999.90;999.90;;;;;;;-0.81;94.73;96397.16;5094114;28;20394;-63
2023/12/11 03:49:18;;;;;;;1999.90;999.90;;;;;;;-0.74;94.82;96398.91;5093814;28;20563;-61
2023/12/11 03:51:45;;;;;;;1999.90;999.90;;;;;;;-0.68;94.41;96392.94;5094065;28;20056;-62
2023/12/11 03:54:14;;;;;;;1999.90;999.90;;;;;;;-0.72;94.02;96396.34;5093885;28;20044;-64
2023/12/11 03:56:41;;;;;;;1999.90;999.90;;;;;;;-0.79;93.71;96395.44;5093747;28;20056;-62
2023/12/11 03:59:08;;;;;;;1999.90;999.90;;;;;;;-0.80;94.04;96401.44;5093717;28;20097;-64
2023/12/11 04:01:35;;;;;;;1999.90;999.90;;;;;;;-0.74;93.92;96406.63;5093588;28;20087;-60
2023/12/11 04:04:02;;;;;;;1999.90;999.90;;;;;;;-0.69;93.95;96411.78;5093694;28;20489;-63
2023/12/11 04:06:30;;;;;;;1999.90;999.90;;;;;;;-0.65;93.77;96422.09;5093813;28;20417;-61
2023/12/11 04:08:57;;;;;;;1999.90;999.90;;;;;;;-0.62;93.63;96415.22;5093591;28;20043;-63
2023/12/11 04:11:25;;;;;;;1999.90;999.90;;;;;;;-0.61;92.76;96416.97;5093755;28;20060;-61
2023/12/11 04:13:53;;;;;;;1999.90;999.90;;;;;;;-0.65;92.43;96418.63;5093633;28;20044;-61
2023/12/11 04:16:20;;;;;;;1999.90;999.90;;;;;;;-0.68;92.26;96423.75;5093612;28;20071;-62
2023/12/11 04:18:47;;;;;;;1999.90;999.90;;;;;;;-0.74;92.59;96410.88;5093530;28;20048;-63
2023/12/11 04:21:14;;;;;;;1999.90;999.90;;;;;;;-0.81;93.35;96420.28;5093396;28;20101;-64
2023/12/11 04:23:41;;;;;;;1999.90;999.90;;;;;;;-0.84;93.58;96425.41;5093570;28;20055;-63
2023/12/11 04:26:08;;;;;;;1999.90;999.90;;;;;;;-0.93;93.60;96416.78;5093340;28;20048;-62
2023/12/11 04:28:37;;;;;;;1999.90;999.90;;;;;;;-0.94;93.81;96419.34;5092981;28;20047;-60
2023/12/11 04:31:05;;;;;;;1999.90;999.90;;;;;;;-0.94;93.81;96429.63;5093293;28;20040;-61
2023/12/11 04:33:36;;;;;;;1999.90;999.90;;;;;;;-0.92;93.96;96428.78;5093312;28;20040;-64
2023/12/11 04:36:07;;;;;;;1999.90;999.90;;;;;;;-0.85;93.90;96421.13;5093214;28;20098;-64
2023/12/11 04:38:34;;;;;;;;;;;;;;;-0.85;93.89;96431.41;5093724;28;20073;-62
2023/12/11 04:41:01;;;;;;;1999.90;999.90;;;;;;;-0.89;93.93;96438.22;5093235;28;20389;-62
2023/12/11 04:43:28;;;;;;;1999.90;999.90;;;;;;;-0.90;93.62;96437.34;5093285;28;20460;-59
2023/12/11 04:45:56;;;;;;;1999.90;999.90;;;;;;;-0.92;93.59;96441.63;5093142;28;20052;-63
2023/12/11 04:48:23;;;;;;;1999.90;999.90;;;;;;;-1.02;93.69;96434.72;5093207;28;20044;-63
2023/12/11 04:50:51;;;;;;;1999.90;999.90;;;;;;;-1.13;94.29;96444.91;5092997;28;20109;-61
2023/12/11 04:53:18;;;;;;;1999.90;999.90;;;;;;;-1.25;94.46;96447.38;5093011;28;20461;-62
2023/12/11 04:55:45;;;;;;;1999.90;999.90;;;;;;;-1.32;94.99;96439.63;5093042;28;20063;-60
2023/12/11 04:58:12;;;;;;;1999.90;999.90;;;;;;;-1.40;95.36;96441.31;5092974;28;20048;-62
2023/12/11 05:00:39;;;;;;;1999.90;999.90;;;;;;;-1.42;95.30;96449.00;5092920;28;20127;-63
2023/12/11 05:03:09;;;;;;;1999.90;999.90;;;;;;;-1.49;95.59;96447.22;5093038;28;20044;-62
2023/12/11 05:05:36;;;;;;;1999.90;999.90;;;;;;;-1.53;95.78;96448.91;5092152;28;20048;-62
2023/12/11 05:08:04;;;;;;;1999.90;999.90;;;;;;;-1.56;95.94;96448.88;5092815;28;20054;-62
2023/12/11 05:10:32;;;;;;;1999.90;999.90;;;;;;;-1.56;95.99;96448.88;5092859;28;20052;-61
2023/12/11 05:13:00;;;;;;;1999.90;999.90;;;;;;;-1.55;95.85;96463.44;5094512;28;20503;-60
2023/12/11 05:15:27;;;;;;;1999.90;999.90;;;;;;;-1.48;95.64;96468.63;5096930;28;20486;-62
2023/12/11 05:17:54;;;;;;;1999.90;999.90;;;;;;;-1.47;95.09;96478.03;5096994;28;20044;-62
2023/12/11 05:20:23;;;;;;;1999.90;999.90;;;;;;;-1.62;94.33;96479.63;5096943;28;20048;-61
2023/12/11 05:22:50;;;;;;;1999.90;999.90;;;;;;;-1.60;93.82;96475.34;5096767;28;20070;-61
2023/12/11 05:25:19;;;;;;;1999.90;999.90;;;;;;;-1.62;94.05;96479.63;5096759;28;20048;-64
2023/12/11 05:27:46;;;;;;;1999.90;999.90;;;;;;;-1.71;94.53;96480.41;5096651;28;20044;-62
2023/12/11 05:30:13;;;;;;;1999.90;999.90;;;;;;;-1.76;95.60;96492.31;5096478;28;20067;-62
2023/12/11 05:32:42;;;;;;;1999.90;999.90;;;;;;;-1.73;96.19;96488.91;5096625;28;20044;-62
2023/12/11 05:35:09;;;;;;;1999.90;999.90;;;;;;;-1.70;96.61;96482.13;5096547;28;20486;-61
2023/12/11 05:37:38;;;;;;;1999.90;999.90;;;;;;;-1.68;96.80;96482.13;5096631;28;20048;-60
2023/12/11 05:40:07;;;;;;;1999.90;999.90;;;;;;;-1.64;96.90;96486.44;5096539;28;20044;-60
2023/12/11 05:42:34;;;;;;;1999.90;999.90;;;;;;;-1.66;97.15;96482.97;5096440;28;20044;-61
2023/12/11 05:45:02;;;;;;;1999.90;999.90;;;;;;;-1.70;96.85;96474.41;5096487;28;20044;-63
2023/12/11 05:47:30;;;;;;;1999.90;999.90;;;;;;;-1.67;96.55;96483.84;5096261;28;20409;-63
2023/12/11 05:49:58;;;;;;;1999.90;999.90;;;;;;;-1.64;96.86;96489.00;5096093;28;20109;-63
2023/12/11 05:52:26;;;;;;;1999.90;999.90;;;;;;;-1.61;96.30;96477.91;5096104;28;20439;-60
2023/12/11 05:54:55;;;;;;;1999.90;999.90;;;;;;;-1.58;95.68;96480.50;5096206;28;20151;-64
2023/12/11 05:57:22;;;;;;;1999.90;999.90;;;;;;;-1.62;95.55;96481.31;5096131;28;20382;-63
2023/12/11 05:59:51;;;;;;;1999.90;999.90;;;;;;;-1.60;96.21;96488.19;5096122;28;20051;-65
2023/12/11 06:02:18;;;;;;;1999.90;999.90;;;;;;;-1.52;95.92;96483.13;5095990;28;20048;-62
2023/12/11 06:04:46;;;;;;;1999.90;999.90;;;;;;;-1.48;95.51;96478.88;5095951;28;20052;-64
2023/12/11 06:07:14;;;;;;;1999.90;999.90;;;;;;;-1.42;95.17;96484.06;5095882;28;20564;-64
2023/12/11 06:09:44;;;;;;;1999.90;999.90;;;;;;;-1.41;94.05;96490.94;5095793;28;20048;-60
2023/12/11 06:12:16;;;;;;;1999.90;999.90;;;;;;;-1.35;93.68;96469.56;5095851;28;20048;-59
2023/12/11 06:14:44;;;;;;;1999.90;999.90;;;;;;;-1.27;93.45;96462.78;5095681;28;20513;-64
2023/12/11 06:17:12;;;;;;;1999.90;999.90;;;;;;;-1.20;92.80;96453.44;5095589;28;20059;-64
2023/12/11 06:19:43;;;;;;;1999.90;999.90;;;;;;;-1.13;92.08;96450.06;5095730;28;20136;-62
2023/12/11 06:22:10;;;;;;;1999.90;999.90;;;;;;;-0.99;92.59;96445.03;5095738;28;20461;-63
2023/12/11 06:24:39;;;;;;;1999.90;999.90;;;;;;;0.01;92.58;96458.28;5094246;28;20119;-61
2023/12/11 06:27:07;;;;;;;1999.90;999.90;;;;;;;1.48;86.31;96458.25;5095868;28;20451;-64
2023/12/11 06:29:36;;;;;;;1999.90;999.90;;;;;;;3.16;77.98;96464.03;5095121;28;20505;-62
2023/12/11 06:32:04;;;;;;;1999.90;999.90;;;;;;;4.69;70.17;96459.53;5095400;28;20048;-63
2023/12/11 06:34:33;;;;;;;1999.90;999.90;;;;;;;5.97;62.46;96477.16;5095527;28;20051;-63
2023/12/11 06:37:00;;;;;;;1999.90;999.90;;;;;;;7.13;58.07;96489.31;5095405;28;20059;-63
2023/12/11 06:39:29;;;;;;;1999.90;999.90;;;;;;;8.38;56.02;96479.84;5095430;28;20051;-65
2023/12/11 06:41:57;;;;;;;1999.90;999.90;;;;;;;9.52;51.30;96456.22;5095359;28;20088;-64
2023/12/11 06:44:25;;;;;;;1999.90;999.90;;;;;;;10.61;46.73;96467.94;5095193;28;20048;-61
2023/12/11 06:46:54;;;;;;;1999.90;999.90;;;;;;;11.30;43.97;96472.19;5095222;28;20122;-63
2023/12/11 06:49:21;;;;;;;1999.90;999.90;;;;;;;11.97;42.74;96478.03;5095034;28;20058;-63
2023/12/11 06:51:50;;;;;;;1999.90;999.90;;;;;;;12.37;41.97;96487.66;5095145;28;20054;-63
2023/12/11 06:54:18;;;;;;;1999.90;999.90;;;;;;;12.63;41.44;96488.22;5095175;28;20040;-63
2023/12/11 06:56:46;;;;;;;1999.90;999.90;;;;;;;12.16;41.40;96482.47;5094978;28;20044;-64
2023/12/11 06:59:14;;;;;;;1999.90;999.90;;;;;;;11.09;43.68;96478.25;5094980;28;20040;-62
2023/12/11 07:01:41;;;;;;;1999.90;999.90;;;;;;;9.94;46.30;96473.00;5094978;28;20048;-64
2023/12/11 07:04:10;;;;;;;1999.90;999.90;;;;;;;8.85;49.05;96474.94;5094796;28;20052;-62
2023/12/11 07:06:38;;;;;;;1999.90;999.90;;;;;;;7.91;51.13;96473.38;5094800;28;20508;-63
2023/12/11 07:09:05;;;;;;;1999.90;999.90;;;;;;;6.97;53.57;96475.81;5094686;28;20059;-64
2023/12/11 07:11:33;;;;;;;1999.90;999.90;;;;;;;6.05;56.13;96463.16;5094653;28;20052;-61
2023/12/11 07:14:01;;;;;;;1999.90;999.90;;;;;;;5.31;58.45;96471.50;5094595;28;20040;-64
2023/12/11 07:16:28;;;;;;;1999.90;999.90;;;;;;;4.82;60.40;96486.16;5094553;28;20051;-62
2023/12/11 07:18:55;;;;;;;1999.90;999.90;;;;;;;4.33;63.26;96487.72;5094586;28;20048;-61
2023/12/11 07:21:24;;;;;;;1999.90;999.90;;;;;;;4.05;63.96;96494.13;5094509;28;20589;-63
2023/12/11 07:23:51;;;;;;;1999.90;999.90;;;;;;;3.86;65.82;96493.50;5094531;28;20044;-61
2023/12/11 07:26:19;;;;;;;1999.90;999.90;;;;;;;3.62;67.23;96487.72;5094498;28;20066;-62
2023/12/11 07:28:46;;;;;;;1999.90;999.90;;;;;;;3.28;69.33;96491.50;5093968;28;20482;-62
2023/12/11 07:31:13;;;;;;;1999.90;999.90;;;;;;;3.16;70.43;96493.34;5094359;28;20048;-63
2023/12/11 07:33:41;;;;;;;1999.90;999.90;;;;;;;3.06;71.19;96494.31;5094308;28;20051;-62
2023/12/11 07:36:10;;;;;;;1999.90;999.90;;;;;;;2.97;72.10;96503.00;5093871;28;20095;-63
2023/12/11 07:38:38;;;;;;;1999.90;999.90;;;;;;;2.92;72.46;96498.75;5094111;28;20044;-63
2023/12/11 07:41:06;;;;;;;1999.90;999.90;;;;;;;2.83;73.03;96504.84;5094169;28;20398;-62
2023/12/11 07:43:33;;;;;;;1999.90;999.90;;;;;;;2.72;73.74;96502.34;5094247;28;20071;-62
2023/12/11 07:46:00;;;;;;;1999.90;999.90;;;;;;;2.67;74.21;96504.09;5094016;28;20483;-62
2023/12/11 07:48:28;;;;;;;1999.90;999.90;;;;;;;2.71;74.50;96501.47;5094098;28;20123;-64
2023/12/11 07:50:55;;;;;;;1999.90;999.90;;;;;;;2.68;74.67;96487.72;5093956;28;20048;-64
2023/12/11 07:53:22;;;;;;;1999.90;999.90;;;;;;;2.59;75.43;96480.91;5093982;28;20048;-64
2023/12/11 07:55:51;;;;;;;1999.90;999.90;;;;;;;2.67;75.89;96484.28;5093902;28;20044;-63
2023/12/11 07:58:18;;;;;;;1999.90;999.90;;;;;;;2.69;76.52;96482.56;5093845;28;20379;-63
2023/12/11 08:00:45;;;;;;;1999.90;999.90;;;;;;;2.74;76.64;96491.09;5093792;28;20482;-61
2023/12/11 08:03:12;;;;;;;1999.90;999.90;;;;;;;3.03;76.97;96499.50;5093739;28;20059;-63
2023/12/11 08:05:39;;;;;;;1999.90;999.90;;;;;;;3.12;75.38;96502.00;5093698;28;20044;-63
2023/12/11 08:08:07;;;;;;;1999.90;999.90;;;;;;;3.18;76.09;96502.81;5093567;28;20084;-62
2023/12/11 08:10:34;;;;;;;1999.90;999.90;;;;;;;3.49;76.36;96498.19;5093440;28;20109;-61
2023/12/11 08:13:02;;;;;;;1999.90;999.90;;;;;;;4.15;74.96;96487.06;5093490;28;20040;-61
2023/12/11 08:15:30;;;;;;;1999.90;999.90;;;;;;;5.50;67.26;96497.09;5093554;28;20089;-65
2023/12/11 08:17:57;;;;;;;1999.90;999.90;;;;;;;6.82;61.76;96497.84;5093482;28;20051;-62
2023/12/11 08:20:24;;;;;;;1999.90;999.90;;;;;;;8.45;57.10;96478.75;5093467;28;20048;-61
2023/12/11 08:22:51;;;;;;;1999.90;999.90;;;;;;;10.31;52.36;96478.63;5093656;28;20048;-64
2023/12/11 08:25:19;;;;;;;1999.90;999.90;;;;;;;11.69;47.63;96474.03;5093514;28;20071;-61
2023/12/11 08:27:46;;;;;;;1999.90;999.90;;;;;;;11.93;46.43;96476.47;5093526;28;20137;-64
2023/12/11 08:30:14;;;;;;;1999.90;999.90;;;;;;;11.91;46.32;96478.31;5093068;28;20052;-63
2023/12/11 08:32:42;;;;;;;1999.90;999.90;;;;;;;11.93;46.35;96480.88;5093459;28;20043;-63
2023/12/11 08:35:09;;;;;;;1999.90;999.90;;;;;;;11.24;48.26;96489.00;5093354;28;20044;-63
2023/12/11 08:37:37;;;;;;;1999.90;999.90;;;;;;;10.47;49.44;96488.53;5093207;28;20081;-62
2023/12/11 08:40:05;;;;;;;1999.90;999.90;;;;;;;9.42;51.92;96483.56;5093245;28;20052;-64
2023/12/11 08:42:33;;;;;;;1999.90;999.90;;;;;;;8.50;55.04;96479.50;5093126;28;20044;-64
2023/12/11 08:45:01;;;;;;;1999.90;999.90;;;;;;;7.84;57.02;96470.09;5093072;28;20055;-62
2023/12/11 08:47:30;;;;;;;1999.90;999.90;;;;;;;7.53;58.49;96463.97;5092264;28;20553;-62
2023/12/11 08:49:58;;;;;;;1999.90;999.90;;;;;;;7.53;59.36;96452.72;5093073;28;20048;-64
2023/12/11 08:52:25;;;;;;;1999.90;999.90;;;;;;;7.69;58.70;96450.56;5093110;28;20052;-62
2023/12/11 08:54:53;;;;;;;1999.90;999.90;;;;;;;7.95;57.77;96455.00;5093120;28;20048;-63
2023/12/11 08:57:21;;;;;;;1999.90;999.90;;;;;;;8.36;57.16;96451.22;5093004;28;20048;-64
2023/12/11 08:59:48;;;;;;;1999.90;999.90;;;;;;;8.39;56.77;96445.91;5092949;28;20048;-62
2023/12/11 09:02:16;;;;;;;1999.90;999.90;;;;;;;7.88;57.84;96429.19;5092856;28;20513;-64
2023/12/11 09:04:45;;;;;;;1999.90;999.90;;;;;;;7.37;60.98;96429.72;5092966;28;20129;-64
2023/12/11 09:07:12;;;;;;;1999.90;999.90;;;;;;;6.88;63.28;96439.63;5092904;28;20054;-63
2023/12/11 09:09:40;;;;;;;1999.90;999.90;;;;;;;6.92;63.42;96447.31;5092972;28;20121;-62
2023/12/11 09:12:08;;;;;;;1999.90;999.90;;;;;;;6.80;64.96;96437.22;5092761;28;20044;-63
2023/12/11 09:14:35;;;;;;;1999.90;999.90;;;;;;;6.73;66.46;96444.34;5093041;28;20217;-61
2023/12/11 09:17:02;;;;;;;1999.90;999.90;;;;;;;6.54;66.05;96443.91;5092996;28;20117;-64
2023/12/11 09:19:29;;;;;;;1999.90;999.90;;;;;;;6.44;67.78;96449.31;5092857;28;20052;-63
2023/12/11 09:21:58;;;;;;;1999.90;999.90;;;;;;;6.47;69.30;96453.59;5092747;28;20059;-63
2023/12/11 09:24:25;;;;;;;1999.90;999.90;;;;;;;6.60;68.75;96448.97;5092695;28;20056;-64
2023/12/11 09:26:52;;;;;;;1999.90;999.90;;;;;;;6.72;67.20;96454.75;5092712;28;20052;-64
2023/12/11 09:29:19;;;;;;;1999.90;999.90;;;;;;;6.76;65.91;96441.66;5092416;28;20052;-62
2023/12/11 09:31:46;;;;;;;1999.90;999.90;;;;;;;6.73;64.77;96441.72;5092731;28;20044;-62
2023/12/11 09:34:14;;;;;;;1999.90;999.90;;;;;;;6.79;65.51;96445.91;5092771;28;20052;-63
2023/12/11 09:36:41;;;;;;;1999.90;999.90;;;;;;;6.87;64.71;96444.00;5092607;28;20130;-62
2023/12/11 09:39:10;;;;;;;1999.90;999.90;;;;;;;6.92;65.57;96444.72;5092683;28;20044;-65
2023/12/11 09:41:37;;;;;;;1999.90;999.90;;;;;;;6.97;65.29;96430.75;5092684;28;20044;-62
2023/12/11 09:44:05;;;;;;;1999.90;999.90;;;;;;;6.96;66.36;96429.91;5092456;28;20052;-62
2023/12/11 09:46:39;;;;;;;1999.90;999.90;;;;;;;6.86;66.95;96438.84;5092659;28;20101;-62
2023/12/11 09:49:06;;;;;;;1999.90;999.90;;;;;;;7.01;66.81;96430.63;5092530;28;20131;-63
2023/12/11 09:51:33;;;;;;;1999.90;999.90;;;;;;;7.04;65.05;96425.34;5092441;28;20055;-63
2023/12/11 09:54:03;;;;;;;1999.90;999.90;;;;;;;6.86;66.05;96415.44;5092700;28;20196;-62
2023/12/11 09:56:33;;;;;;;1999.90;999.90;;;;;;;6.99;64.73;96410.78;5092535;28;20504;-62
2023/12/11 09:59:00;;;;;;;1999.90;999.90;;;;;;;6.98;64.58;96401.25;5094031;28;20040;-64
2023/12/11 10:01:27;;;;;;;1999.90;999.90;;;;;;;7.01;64.33;96401.19;5095995;28;20083;-64
2023/12/11 10:03:53;;;;;;;1999.90;999.90;;;;;;;7.12;64.72;96406.09;5096099;28;20052;-63
2023/12/11 10:06:20;;;;;;;1999.90;999.90;;;;;;;7.27;63.79;96402.22;5095928;28;20044;-62
2023/12/11 10:08:52;;;;;;;1999.90;999.90;;;;;;;7.36;62.86;96399.38;5095904;28;20040;-64
2023/12/11 10:11:22;;;;;;;1999.90;999.90;;;;;;;7.36;62.48;96402.00;5095804;28;20044;-61
2023/12/11 10:13:50;;;;;;;1999.90;999.90;;;;;;;7.39;62.51;96388.91;5095798;28;20046;-63
2023/12/11 10:16:31;;;;;;;1999.90;999.90;;;;;;;7.51;62.12;96390.31;5095781;28;20118;-62
2023/12/11 10:18:58;;;;;;;;;;;;;;;7.64;62.37;96396.00;5096187;28;20094;-64
2023/12/11 10:21:26;;;;;;;1999.90;999.90;;;;;;;7.48;62.09;96384.31;5095792;28;19924;-62
2023/12/11 10:24:03;;;;;;;1999.90;999.90;;;;;;;7.58;61.47;96390.97;5095570;28;20498;-64
2023/12/11 10:26:31;;;;;;;1999.90;999.90;;;;;;;7.78;61.97;96389.53;5095564;28;20048;-62
2023/12/11 10:29:17;;;;;;;1999.90;999.90;;;;;;;7.80;61.56;96396.41;5095303;28;20512;-61
2023/12/11 10:31:44;;;;;;;1999.90;999.90;;;;;;;7.74;62.06;96394.00;5095547;28;20075;-62
2023/12/11 10:34:11;;;;;;;1999.90;999.90;;;;;;;7.68;63.06;96394.19;5095522;28;20118;-61
2023/12/11 10:36:49;;;;;;;1999.90;999.90;;;;;;;7.75;61.89;96400.91;5095516;28;20139;-61
2023/12/11 10:42:38;;;;;;;1999.90;999.90;;;;;;;7.71;61.88;96391.50;5095424;28;20050;-64
2023/12/11 10:45:09;;;;;;;1999.90;999.90;;;;;;;7.86;61.22;96381.50;5095223;28;20048;-62
2023/12/11 10:47:36;;;;;;;;;;;;;;;7.92;61.34;96379.56;5095773;28;20533;-62
2023/12/11 10:50:06;;;;;;;1999.90;999.90;;;;;;;7.87;59.21;96367.59;5095294;28;19920;-64
2023/12/11 10:52:34;;;;;;;1999.90;999.90;;;;;;;7.84;61.26;96360.72;5095103;28;20482;-61
2023/12/11 10:55:01;;;;;;;1999.90;999.90;;;;;;;7.94;62.43;96353.47;5094985;28;20086;-61
2023/12/11 10:57:31;;;;;;;1999.90;999.90;;;;;;;8.00;61.40;96352.47;5095010;28;20071;-63
2023/12/11 10:59:59;;;;;;;1999.90;999.90;;;;;;;8.05;61.35;96346.19;5094822;28;20486;-64
2023/12/11 11:02:28;;;;;;;1999.90;999.90;;;;;;;8.08;61.46;96343.50;5094842;28;20066;-64
2023/12/11 11:04:59;;;;;;;1999.90;999.90;;;;;;;8.12;60.70;96335.59;5094741;28;20048;-63